Accueil
METAR-TAF:

METAR-TAF

Aéroports :

Aéroport de Vérone

Vérone, Italie

latitude: 45-23N, longitude: 010-52E, altitude: 67 m

Observation

Le bulletin a été fait il y a 36 minutes, à 04:20 UTC
Vent 2 kt de direction variable
Température 1°C
Humidité 80%
Pression 1022 hPa
Visibilité 10 km ou plus
pas de nuages en-dessous de 1500 mètres et pas de cumulonimbus.

METAR: LIPX 210420Z VRB02KT CAVOK 01/M02 Q1022

Heure: 05:56 (04:56 UTC)

Prévision

Le bulletin a été fait il y a 2 heures et 56 minutes, à 02:00 UTC
Prévision valable du 21 à 03 UTC au 21 à 12 UTC
Vent 5 kt de direction variable
Visibilité 10 km ou plus
pas de nuages en-dessous de 1500 mètres et pas de cumulonimbus.
Probabilité 30% :
Temporairement
du 21 à 03 UTC au 21 à 06 UTC
Visibilité: 3000 m
brume

TAF: LIPX 210200Z 2103/2112 VRB05KT CAVOK PROB30 TEMPO 2103/2106 3000 BR

Observations et prévisions météorologiques de plus de 4000 aéroports (messages METAR et TAF).

Les stations disponibles sont représentées par des disques jaunes et rouges sur la carte.

Passer la souris dessus pour voir le nom de la station.

Cliquer dessus pour voir les observations et prévisions météorologiques.

Pour changer de carte: cliquez sur les boutons verts avec une croix noire pour zoomer, sur le bouton vert avec un tiret pour effectuer un zoom arrière, ou sur les flèches vertes pour les cartes adjacentes.


METAR-TAF: